Time;durP1;ratioP1;P1;durP2;ratioP2;P2;SDS_P1;SDS_P2;PMS_P1;PMS_P2;Temp;Humidity;BMP_temperature;BMP_pressure;BME280_temperature;BME280_humidity;BME280_pressure;Samples;Min_cycle;Max_cycle;Signal;HPM_P1;HPM_P2
2022/10/05 00:01:34;;;;;;;4.40;1.58;;;;;;;24.73;42.03;101743.50;5091197;28;20038;-74
2022/10/05 00:04:23;;;;;;;1.55;1.30;;;;;;;23.59;45.06;101747.66;5090212;27;20098;-74
2022/10/05 00:06:57;;;;;;;3.33;1.58;;;;;;;24.06;43.19;101754.19;5091709;28;20024;-74
2022/10/05 00:09:22;;;;;;;6.82;1.70;;;;;;;24.86;41.84;101754.38;5090038;28;20031;-74
2022/10/05 00:11:49;;;;;;;1.98;1.58;;;;;;;23.98;42.93;101754.56;5089250;28;20024;-74
2022/10/05 00:14:29;;;;;;;1.67;1.50;;;;;;;23.27;46.01;101744.75;5092876;28;20109;-74
2022/10/05 00:16:55;;;;;;;1.83;1.52;;;;;;;22.99;46.21;101743.41;5092529;28;20066;-74
2022/10/05 00:19:36;;;;;;;3.13;1.67;;;;;;;22.97;45.76;101741.75;5090210;28;20085;-73
2022/10/05 00:22:14;;;;;;;2.25;1.55;;;;;;;23.75;44.85;101741.53;5091262;28;20773;-74
2022/10/05 00:24:40;;;;;;;4.03;1.85;;;;;;;23.68;44.69;101735.63;5091280;28;20032;-74
2022/10/05 00:27:17;;;;;;;4.40;1.70;;;;;;;23.36;45.27;101732.78;5089967;28;20018;-74
2022/10/05 00:29:43;;;;;;;4.82;1.80;;;;;;;23.49;45.64;101728.59;5090562;28;20068;-74
2022/10/05 00:32:09;;;;;;;3.03;1.65;;;;;;;23.83;44.24;101726.81;5090758;28;20107;-74
2022/10/05 00:34:35;;;;;;;5.68;2.08;;;;;;;23.14;45.28;101723.19;5090562;28;20024;-74
2022/10/05 00:37:00;;;;;;;3.92;1.90;;;;;;;23.91;43.70;101721.13;5090333;28;20035;-74
2022/10/05 00:39:26;;;;;;;4.25;1.90;;;;;;;24.26;43.25;101722.88;5091212;28;20020;-74
2022/10/05 00:42:06;;;;;;;2.35;1.83;;;;;;;24.06;44.01;101724.81;5102581;27;20487;-73
2022/10/05 00:44:45;;;;;;;4.60;2.17;;;;;;;23.99;43.57;101728.75;5090625;28;20046;-73
2022/10/05 00:47:23;;;;;;;2.72;1.98;;;;;;;24.30;42.97;101719.09;5089835;28;20035;-73
2022/10/05 00:50:26;;;;;;;6.57;1.70;;;;;;;23.32;44.53;101709.88;5091257;28;20044;-73
2022/10/05 00:53:01;;;;;;;;;;;;;;;24.08;43.74;101706.88;5091486;28;20059;-74
2022/10/05 00:55:53;;;;;;;5.43;1.55;;;;;;;22.56;45.72;101707.28;5090760;28;19912;-74
2022/10/05 00:58:50;;;;;;;5.53;2.13;;;;;;;24.11;43.49;101706.75;5090628;28;20484;-74
2022/10/05 01:01:43;;;;;;;3.95;1.60;;;;;;;23.39;44.55;101695.28;5090428;28;20086;-73
2022/10/05 01:04:11;;;;;;;2.85;1.92;;;;;;;24.31;42.24;101694.09;5090605;28;20403;-74
2022/10/05 01:07:03;;;;;;;4.15;2.03;;;;;;;23.38;44.50;101678.44;5088829;28;20034;-73
2022/10/05 01:09:35;;;;;;;4.30;2.25;;;;;;;22.67;45.98;101691.66;5090779;28;20024;-74
2022/10/05 01:12:14;;;;;;;4.90;2.53;;;;;;;22.63;46.73;101684.75;5089632;28;20063;-74
2022/10/05 01:14:58;;;;;;;4.32;2.88;;;;;;;22.13;47.71;101679.00;5090083;28;20113;-74
2022/10/05 01:17:36;;;;;;;3.88;2.47;;;;;;;24.01;44.80;101676.13;5090606;28;20120;-74
2022/10/05 01:20:18;;;;;;;7.07;3.35;;;;;;;23.74;45.47;101668.63;5088653;28;20484;-73
2022/10/05 01:23:05;;;;;;;3.88;3.15;;;;;;;23.40;46.05;101659.69;5088956;28;20042;-73
2022/10/05 01:25:33;;;;;;;6.38;4.60;;;;;;;23.75;45.26;101659.63;5090501;28;20028;-74
2022/10/05 01:28:17;;;;;;;5.78;4.15;;;;;;;23.45;46.79;101657.66;5089509;28;20093;-74
2022/10/05 01:31:29;;;;;;;6.03;4.30;;;;;;;23.04;47.52;101655.22;5089736;28;20023;-74
2022/10/05 01:33:59;;;;;;;9.23;4.95;;;;;;;22.38;49.03;101659.28;5086031;28;20062;-73
2022/10/05 01:36:44;;;;;;;6.32;4.30;;;;;;;23.12;47.06;101650.41;5089285;28;20032;-74
2022/10/05 01:39:37;;;;;;;7.82;5.05;;;;;;;23.97;45.91;101655.88;5090364;28;20027;-73
2022/10/05 01:42:47;;;;;;;7.50;4.95;;;;;;;22.31;49.32;101645.34;5088114;28;20032;-73
2022/10/05 01:45:28;;;;;;;5.03;4.32;;;;;;;24.46;45.12;101649.66;5048917;28;20477;-74
2022/10/05 01:48:07;;;;;;;10.07;5.43;;;;;;;24.02;45.21;101644.00;5051934;28;20129;-73
2022/10/05 01:51:14;;;;;;;6.68;4.72;;;;;;;22.61;49.11;101638.66;5073048;28;20495;-74
2022/10/05 01:54:20;;;;;;;7.45;4.45;;;;;;;24.13;45.51;101635.41;5087248;28;20265;-74
2022/10/05 01:57:04;;;;;;;9.25;4.82;;;;;;;23.04;47.43;101633.91;5074707;28;20040;-74
2022/10/05 01:59:47;;;;;;;9.82;4.50;;;;;;;23.82;45.89;101629.03;5092860;28;20024;-74
2022/10/05 02:02:18;;;;;;;9.52;4.55;;;;;;;23.58;46.84;101615.19;5092739;28;20039;-74
2022/10/05 02:04:49;;;;;;;7.78;4.65;;;;;;;22.64;49.41;101609.19;5092847;28;20032;-74
2022/10/05 02:07:31;;;;;;;10.65;5.10;;;;;;;22.93;47.91;101606.91;5094233;28;20020;-74
2022/10/05 02:10:06;;;;;;;14.97;4.83;;;;;;;24.33;44.67;101612.06;5092818;28;20388;-74
2022/10/05 02:12:36;;;;;;;7.75;4.70;;;;;;;22.98;47.71;101615.53;5093132;28;20063;-74
2022/10/05 02:15:25;;;;;;;5.88;4.43;;;;;;;24.72;44.00;101618.81;5092403;28;20028;-74
2022/10/05 02:17:56;;;;;;;12.70;5.05;;;;;;;23.35;47.47;101603.88;5093129;28;20024;-75
2022/10/05 02:20:30;;;;;;;14.43;5.30;;;;;;;22.56;49.27;101598.94;5093876;28;20031;-74
2022/10/05 02:23:02;;;;;;;7.68;4.40;;;;;;;23.55;47.29;101586.84;5093019;28;20294;-74
2022/10/05 02:25:32;;;;;;;9.15;5.00;;;;;;;23.42;46.68;101583.09;5094870;28;20016;-74
2022/10/05 02:28:20;;;;;;;8.00;5.05;;;;;;;22.02;50.37;101580.13;5092835;28;20043;-73
2022/10/05 02:31:08;;;;;;;8.32;4.82;;;;;;;22.98;48.95;101583.56;5092169;28;20020;-74
2022/10/05 02:33:35;;;;;;;9.07;4.75;;;;;;;24.07;46.33;101579.69;5091238;28;20031;-75
2022/10/05 02:36:16;;;;;;;8.77;5.30;;;;;;;23.28;47.67;101583.81;5092874;28;20091;-74
2022/10/05 02:39:18;;;;;;;7.45;5.18;;;;;;;22.92;47.72;101584.72;5094049;28;20029;-74
2022/10/05 02:41:46;;;;;;;14.55;6.07;;;;;;;23.11;48.35;101589.09;5082881;28;20125;-74
2022/10/05 02:44:34;;;;;;;10.10;5.88;;;;;;;23.79;46.20;101594.47;5107132;27;20032;-74
2022/10/05 02:47:29;;;;;;;8.40;5.32;;;;;;;23.08;48.44;101590.16;5108925;27;20059;-74
2022/10/05 02:50:19;;;;;;;5.97;4.85;;;;;;;23.13;47.55;101581.94;5084091;28;20036;-73
2022/10/05 02:52:59;;;;;;;9.40;5.13;;;;;;;22.88;48.69;101584.00;5090888;28;20052;-74
2022/10/05 02:55:35;;;;;;;9.77;4.85;;;;;;;23.32;47.72;101585.38;5093675;28;20038;-74
2022/10/05 02:58:36;;;;;;;8.00;5.43;;;;;;;22.92;48.74;101583.88;5091707;28;20482;-74
2022/10/05 03:01:32;;;;;;;9.18;5.28;;;;;;;23.71;46.15;101583.34;5091777;28;20028;-74
2022/10/05 03:04:04;;;;;;;7.00;4.93;;;;;;;23.50;46.37;101585.38;5091739;28;20031;-74
2022/10/05 03:06:37;;;;;;;6.50;4.80;;;;;;;23.14;47.89;101581.88;5092662;28;20495;-74
2022/10/05 03:09:04;;;;;;;8.13;5.00;;;;;;;22.71;48.30;101576.00;5092918;28;20097;-74
2022/10/05 03:11:46;;;;;;;9.00;5.05;;;;;;;22.53;49.35;101575.09;5092159;28;20492;-73
2022/10/05 03:14:20;;;;;;;6.05;4.38;;;;;;;23.19;47.36;101574.50;5088445;28;20396;-73
2022/10/05 03:17:11;;;;;;;11.45;5.05;;;;;;;23.57;46.37;101569.91;5093626;28;20028;-72
2022/10/05 03:19:36;;;;;;;7.78;4.53;;;;;;;23.77;45.17;101576.81;5093833;28;20117;-73
2022/10/05 03:22:16;;;;;;;9.63;5.57;;;;;;;22.55;48.32;101580.38;5090530;28;20178;-73
2022/10/05 03:24:50;;;;;;;6.47;4.88;;;;;;;22.77;48.56;101570.38;5085503;28;20123;-72
2022/10/05 03:27:48;;;;;;;8.00;4.20;;;;;;;23.76;45.62;101559.94;5091886;28;20023;-72
2022/10/05 03:30:24;;;;;;;7.78;4.22;;;;;;;22.50;47.75;101578.78;5092216;28;20031;-72
2022/10/05 03:32:59;;;;;;;5.80;4.22;;;;;;;23.27;46.97;101578.56;5091267;28;20023;-72
2022/10/05 03:35:39;;;;;;;8.25;4.63;;;;;;;23.65;45.96;101581.03;5088491;28;20024;-73
2022/10/05 03:38:40;;;;;;;7.25;4.38;;;;;;;22.57;47.95;101581.13;5088935;28;20028;-73
2022/10/05 03:41:18;;;;;;;7.35;4.72;;;;;;;24.67;43.25;101580.78;5091981;28;20111;-73
2022/10/05 03:43:53;;;;;;;8.13;4.82;;;;;;;24.46;43.66;101573.03;5090834;28;20039;-72
2022/10/05 03:46:35;;;;;;;6.68;4.63;;;;;;;22.61;48.18;101569.41;5073134;28;20028;-74
2022/10/05 03:49:15;;;;;;;7.80;4.55;;;;;;;22.03;48.51;101563.22;5087950;28;20106;-71
2022/10/05 03:52:10;;;;;;;5.53;3.80;;;;;;;22.48;47.47;101564.66;5093309;28;20484;-74
2022/10/05 03:54:43;;;;;;;6.70;3.90;;;;;;;23.38;45.46;101561.06;5086377;28;20032;-73
2022/10/05 03:57:20;;;;;;;8.30;4.38;;;;;;;22.63;46.86;101567.53;5091114;28;20043;-73
2022/10/05 03:59:59;;;;;;;7.40;3.45;;;;;;;22.90;46.60;101561.75;5091038;28;20054;-74
2022/10/05 04:02:30;;;;;;;5.25;3.78;;;;;;;22.00;49.08;101558.06;5090014;28;20074;-73
2022/10/05 04:05:02;;;;;;;7.78;4.03;;;;;;;22.75;46.83;101556.28;5091612;28;20032;-74
2022/10/05 04:07:55;;;;;;;5.22;3.55;;;;;;;21.56;50.06;101555.66;5091057;28;20404;-73
2022/10/05 04:10:26;;;;;;;6.55;3.55;;;;;;;23.79;44.57;101549.09;5091990;28;20030;-74
2022/10/05 04:13:01;;;;;;;3.97;3.13;;;;;;;22.94;45.42;101550.00;5091026;28;20024;-73
2022/10/05 04:15:36;;;;;;;4.30;3.22;;;;;;;23.26;45.46;101548.38;5090424;28;20032;-73
2022/10/05 04:18:11;;;;;;;5.10;3.33;;;;;;;23.03;45.55;101549.53;5090241;28;20032;-73
2022/10/05 04:20:53;;;;;;;3.97;3.00;;;;;;;23.13;44.98;101564.13;5091561;28;20047;-74
2022/10/05 04:23:33;;;;;;;2.67;2.40;;;;;;;21.90;47.89;101543.44;5089987;28;20539;-73
2022/10/05 04:26:05;;;;;;;3.25;2.33;;;;;;;21.81;48.29;101547.41;5090604;28;20365;-73
2022/10/05 04:28:40;;;;;;;4.78;2.00;;;;;;;21.80;47.73;101546.56;5090695;28;20057;-74
2022/10/05 04:31:12;;;;;;;3.67;1.88;;;;;;;23.17;44.43;101541.69;5092287;28;20028;-73
2022/10/05 04:33:37;;;;;;;6.13;2.30;;;;;;;22.09;46.76;101541.66;5080259;28;20035;-73
2022/10/05 04:36:26;;;;;;;4.53;1.88;;;;;;;21.97;47.21;101543.09;5087412;27;20658;-73
2022/10/05 04:39:12;;;;;;;2.70;1.65;;;;;;;23.10;44.56;101528.75;5071057;28;20099;-73
2022/10/05 04:42:06;;;;;;;4.30;1.52;;;;;;;21.89;46.65;101529.28;5071146;28;20464;-74
2022/10/05 04:44:43;;;;;;;1.63;1.35;;;;;;;22.67;45.54;101532.66;5085781;28;20031;-73
2022/10/05 04:47:37;;;;;;;2.17;1.83;;;;;;;21.65;47.36;101537.47;5091463;28;20027;-73
2022/10/05 04:50:12;;;;;;;5.20;1.58;;;;;;;23.29;44.20;101520.69;5090921;28;20403;-73
2022/10/05 04:52:44;;;;;;;2.90;1.20;;;;;;;;;;5089476;28;20484;-73
2022/10/05 04:55:46;;;;;;;1.73;1.13;;;;;;;22.78;46.15;101512.59;5090324;28;20424;-73
2022/10/05 04:58:51;;;;;;;2.67;1.35;;;;;;;22.53;45.59;101514.72;5089538;28;20044;-73
2022/10/05 05:01:41;;;;;;;1.50;0.98;;;;;;;21.88;47.59;101508.06;5071125;28;20040;-74
2022/10/05 05:04:15;;;;;;;1.38;0.93;;;;;;;22.52;45.20;101502.31;5089541;28;20028;-74
2022/10/05 05:07:05;;;;;;;2.83;1.20;;;;;;;23.41;43.43;101503.16;5091580;28;20032;-74
2022/10/05 05:09:30;;;;;;;1.25;0.90;;;;;;;21.84;46.99;101500.25;5090847;28;20032;-75
2022/10/05 05:12:28;;;;;;;0.90;0.80;;;;;;;23.52;43.46;101493.66;5088933;28;20036;-74
2022/10/05 05:15:29;;;;;;;2.45;1.42;;;;;;;23.37;42.75;101489.16;5079319;28;20483;-75
2022/10/05 05:18:20;;;;;;;1.33;0.75;;;;;;;23.83;42.52;101499.94;5090731;28;20036;-74
2022/10/05 05:20:45;;;;;;;2.35;0.90;;;;;;;22.64;44.67;101500.84;5089007;28;20110;-74
2022/10/05 05:23:34;;;;;;;1.30;1.05;;;;;;;22.17;45.92;101488.91;5090031;28;20548;-73
2022/10/05 05:26:22;;;;;;;1.00;0.88;;;;;;;23.94;41.72;101493.19;5088677;28;20024;-73
2022/10/05 05:29:13;;;;;;;1.50;0.90;;;;;;;22.43;44.70;101497.44;5107749;28;20028;-75
2022/10/05 05:32:07;;;;;;;1.88;0.80;;;;;;;22.70;44.79;101489.88;5088670;28;20035;-74
2022/10/05 05:34:35;;;;;;;2.78;1.05;;;;;;;23.61;42.66;101491.41;5088981;28;20070;-75
2022/10/05 05:37:04;;;;;;;1.27;1.00;;;;;;;23.67;42.64;101491.06;5090294;28;20062;-74
2022/10/05 05:39:57;;;;;;;1.90;1.15;;;;;;;23.36;43.43;101484.75;5090228;28;20028;-74
2022/10/05 05:42:51;;;;;;;1.98;1.20;;;;;;;22.55;44.93;101492.47;5090706;28;20358;-74
2022/10/05 05:45:25;;;;;;;3.85;1.02;;;;;;;23.07;44.28;101491.56;5090525;28;20064;-74
2022/10/05 05:47:53;;;;;;;1.20;0.70;;;;;;;23.05;44.47;101481.00;5089644;28;20057;-74
2022/10/05 05:50:36;;;;;;;1.63;1.10;;;;;;;22.75;44.61;101491.44;5089339;28;20054;-74
2022/10/05 05:53:05;;;;;;;2.05;1.17;;;;;;;23.37;43.71;101478.47;5090426;28;20036;-74
2022/10/05 05:55:35;;;;;;;2.10;1.00;;;;;;;23.12;44.53;101479.78;5086597;28;20056;-74
2022/10/05 05:58:16;;;;;;;1.35;1.00;;;;;;;22.70;45.10;101483.69;5089834;28;20024;-74
2022/10/05 06:01:07;;;;;;;1.48;1.15;;;;;;;23.77;42.92;101478.94;5090127;28;20097;-74
2022/10/05 06:03:48;;;;;;;1.80;1.30;;;;;;;22.78;45.22;101483.28;5088327;28;20115;-73
2022/10/05 06:06:16;;;;;;;1.52;1.17;;;;;;;22.97;44.62;101481.41;5089308;28;20024;-74
2022/10/05 06:08:57;;;;;;;5.28;1.20;;;;;;;24.46;41.56;101487.53;5089547;28;20387;-73
2022/10/05 06:11:41;;;;;;;3.17;1.27;;;;;;;22.95;44.46;101488.59;5091246;28;20381;-74
2022/10/05 06:14:31;;;;;;;1.45;1.23;;;;;;;23.07;45.04;101487.13;5088684;28;20471;-74
2022/10/05 06:17:11;;;;;;;8.48;1.70;;;;;;;23.12;44.25;101485.13;5088418;28;20361;-73
2022/10/05 06:19:38;;;;;;;2.60;1.40;;;;;;;23.58;43.19;101491.59;5090042;28;20036;-74
2022/10/05 06:22:12;;;;;;;1.35;1.20;;;;;;;23.04;44.67;101489.97;5089993;28;20088;-74
2022/10/05 06:25:15;;;;;;;1.45;1.27;;;;;;;23.66;43.31;101490.22;5087773;28;20098;-73
2022/10/05 06:27:59;;;;;;;;;;;;;;;23.96;43.31;101493.97;5066663;28;20036;-74
2022/10/05 06:30:34;;;;;;;6.68;1.40;;;;;;;24.21;42.85;101486.28;5090864;28;19908;-73
2022/10/05 06:33:32;;;;;;;2.15;1.50;;;;;;;23.59;43.90;101490.63;5087942;28;20535;-73
2022/10/05 06:36:09;;;;;;;2.42;1.45;;;;;;;23.16;44.21;101492.00;5080267;28;20556;-74
2022/10/05 06:39:04;;;;;;;2.80;1.50;;;;;;;23.21;44.52;101489.09;5092006;28;20425;-73
2022/10/05 06:41:47;;;;;;;2.72;2.08;;;;;;;23.23;44.95;101491.66;5093680;28;20021;-73
2022/10/05 06:44:28;;;;;;;2.58;1.95;;;;;;;23.37;44.50;101494.47;5091308;28;20071;-73
2022/10/05 06:47:06;;;;;;;2.45;2.08;;;;;;;23.81;43.85;101492.97;5093101;28;20020;-73
2022/10/05 06:49:53;;;;;;;2.05;1.38;;;;;;;22.23;47.26;101493.09;5088378;28;20075;-74
2022/10/05 06:52:34;;;;;;;2.38;1.52;;;;;;;23.30;45.04;101493.06;5097566;27;20032;-74
2022/10/05 06:55:19;;;;;;;3.15;1.83;;;;;;;22.47;46.68;101511.47;5089784;28;20032;-75
2022/10/05 06:58:22;;;;;;;2.63;1.80;;;;;;;22.27;47.31;101501.75;5099482;27;20108;-73
2022/10/05 07:01:11;;;;;;;5.35;1.95;;;;;;;21.77;48.80;101504.09;5095140;27;20385;-73
2022/10/05 07:04:05;;;;;;;1.85;1.58;;;;;;;22.73;46.54;101499.50;5087988;28;20438;-74
2022/10/05 07:06:36;;;;;;;4.45;1.50;;;;;;;22.39;47.42;101505.66;5110108;28;20385;-74
2022/10/05 07:09:12;;;;;;;3.50;1.88;;;;;;;23.80;44.34;101501.94;5091289;28;20032;-74
2022/10/05 07:11:56;;;;;;;2.75;1.58;;;;;;;23.15;45.64;101500.94;5087838;28;20454;-74
2022/10/05 07:14:54;;;;;;;2.30;1.65;;;;;;;22.49;46.88;101491.81;5095750;28;20080;-75
2022/10/05 07:17:22;;;;;;;4.22;1.50;;;;;;;22.93;45.51;101489.63;5082006;28;20134;-74
2022/10/05 07:20:26;;;;;;;2.10;1.50;;;;;;;23.38;45.44;101496.19;5091587;28;20047;-74
2022/10/05 07:22:56;;;;;;;2.47;1.83;;;;;;;22.25;46.87;101503.66;5090656;28;20039;-73
2022/10/05 07:25:45;;;;;;;3.50;1.80;;;;;;;23.84;43.45;101496.34;5102462;27;20031;-74
2022/10/05 07:28:35;;;;;;;2.45;1.65;;;;;;;22.14;47.57;101501.50;5108740;28;20059;-73
2022/10/05 07:31:36;;;;;;;1.98;1.60;;;;;;;22.39;47.23;101492.34;5094481;27;20373;-74
2022/10/05 07:34:42;;;;;;;5.15;1.85;;;;;;;22.85;45.96;101488.22;5052788;28;20062;-74
2022/10/05 07:40:29;;;;;;;3.20;1.90;;;;;;;22.99;46.43;101495.50;5089672;28;20465;-74
2022/10/05 07:43:10;;;;;;;2.43;2.20;;;;;;;22.95;46.59;101477.94;5094210;28;20486;-74
2022/10/05 07:45:41;;;;;;;5.13;2.00;;;;;;;22.07;48.68;101490.28;5093253;28;20623;-75
2022/10/05 07:48:15;;;;;;;2.72;1.95;;;;;;;23.89;44.66;101485.44;5091497;28;20032;-74
2022/10/05 07:51:16;;;;;;;2.90;2.03;;;;;;;23.19;46.25;101486.50;5091111;28;20056;-74
2022/10/05 07:54:05;;;;;;;4.57;2.33;;;;;;;24.36;43.56;101483.69;5088396;28;20062;-73
2022/10/05 07:56:39;;;;;;;6.78;2.15;;;;;;;22.91;45.91;101486.19;5091408;28;20391;-75
2022/10/05 07:59:30;;;;;;;3.38;1.92;;;;;;;22.88;46.41;101488.06;5088004;28;20401;-74
2022/10/05 08:02:11;;;;;;;3.95;2.05;;;;;;;23.47;44.85;101479.69;5085323;28;20051;-75
2022/10/05 08:04:46;;;;;;;2.13;1.80;;;;;;;23.72;44.60;101483.69;5093053;28;20031;-75
2022/10/05 08:07:15;;;;;;;2.47;2.00;;;;;;;23.45;46.02;101478.91;5089210;28;20016;-75
2022/10/05 08:09:49;;;;;;;4.50;2.30;;;;;;;22.97;46.30;101475.19;5087774;27;20024;-74
2022/10/05 08:12:33;;;;;;;5.40;2.22;;;;;;;23.26;45.22;101468.38;5076122;28;20381;-73
2022/10/05 08:15:13;;;;;;;3.55;2.42;;;;;;;22.76;46.37;101483.34;5076372;28;20100;-73
2022/10/05 08:18:01;;;;;;;6.05;2.35;;;;;;;23.51;45.21;101481.25;5092132;28;20132;-74
2022/10/05 08:20:46;;;;;;;2.83;2.00;;;;;;;23.45;45.19;101473.59;5099669;27;20071;-74
2022/10/05 08:23:18;;;;;;;4.85;2.10;;;;;;;22.27;48.77;101476.03;5093727;28;20046;-74
2022/10/05 08:25:47;;;;;;;6.32;2.72;;;;;;;22.50;47.30;101476.69;5082960;28;20036;-73
2022/10/05 08:28:35;;;;;;;3.35;2.22;;;;;;;23.30;45.83;101466.38;5089009;28;20038;-73
2022/10/05 08:31:07;;;;;;;3.03;2.38;;;;;;;23.41;44.68;101458.69;5087876;28;20081;-72
2022/10/05 08:34:08;;;;;;;6.85;2.45;;;;;;;23.57;45.16;101453.38;5087981;28;20042;-74
2022/10/05 08:36:48;;;;;;;4.82;2.30;;;;;;;23.44;45.18;101453.19;5095022;28;20404;-73
2022/10/05 08:39:19;;;;;;;2.38;2.17;;;;;;;21.76;48.54;101459.81;5089947;28;20094;-73
2022/10/05 08:42:04;;;;;;;4.25;2.17;;;;;;;23.19;45.08;101462.50;5090823;28;20024;-73
2022/10/05 08:44:41;;;;;;;3.47;2.13;;;;;;;23.39;45.33;101449.91;5079463;28;20048;-73
2022/10/05 08:47:28;;;;;;;5.70;1.80;;;;;;;22.26;47.53;101457.47;5088942;28;20028;-73
2022/10/05 08:50:10;;;;;;;3.85;1.88;;;;;;;23.64;44.55;101443.22;5089452;28;20073;-73
2022/10/05 08:53:00;;;;;;;2.97;1.90;;;;;;;23.02;46.65;101450.03;5102268;27;20115;-73
2022/10/05 08:55:34;;;;;;;6.80;1.83;;;;;;;23.77;43.57;101444.25;5089862;28;20036;-73
2022/10/05 08:58:37;;;;;;;2.63;1.60;;;;;;;22.64;46.05;101452.00;5090710;28;20039;-74
2022/10/05 09:01:02;;;;;;;2.60;1.53;;;;;;;23.51;45.14;101435.88;5092259;28;20127;-74
2022/10/05 09:03:37;;;;;;;2.20;1.80;;;;;;;23.80;43.91;101444.06;5089906;28;20511;-74
2022/10/05 09:06:24;;;;;;;4.10;1.55;;;;;;;23.81;43.82;101440.47;5090615;28;20024;-74
2022/10/05 09:09:20;;;;;;;3.45;1.60;;;;;;;24.30;43.50;101435.97;5088043;28;20125;-74
2022/10/05 09:12:32;;;;;;;3.45;1.65;;;;;;;23.10;46.01;101430.97;5101614;27;20028;-73
2022/10/05 09:15:16;;;;;;;2.17;1.50;;;;;;;23.49;45.28;101429.78;5084113;28;20043;-74
2022/10/05 09:17:41;;;;;;;6.53;2.10;;;;;;;23.37;45.27;101419.81;5091895;28;20032;-74
2022/10/05 09:20:29;;;;;;;3.80;1.70;;;;;;;24.32;43.18;101420.72;5088300;28;20032;-73
2022/10/05 09:23:01;;;;;;;1.92;1.45;;;;;;;23.84;43.34;101420.75;5086676;28;20024;-73
2022/10/05 09:25:36;;;;;;;2.75;1.73;;;;;;;23.50;43.75;101415.47;5091096;28;20039;-74
2022/10/05 09:28:19;;;;;;;3.72;1.42;;;;;;;23.27;44.59;101418.56;5087080;28;20039;-74
2022/10/05 09:31:07;;;;;;;2.28;1.42;;;;;;;24.04;43.57;101424.97;5092191;28;20044;-73
2022/10/05 09:34:26;;;;;;;3.75;1.42;;;;;;;23.44;44.96;101421.19;5092069;28;20030;-73
2022/10/05 09:37:11;;;;;;;3.10;1.27;;;;;;;23.91;43.81;101418.63;5054557;28;20122;-74
2022/10/05 09:39:54;;;;;;;4.00;2.15;;;;;;;23.06;45.46;101426.75;5086150;28;20092;-75
2022/10/05 09:42:54;;;;;;;1.70;1.40;;;;;;;23.40;44.74;101414.28;5089796;28;20069;-73
2022/10/05 09:45:32;;;;;;;3.45;1.35;;;;;;;23.55;44.63;101424.09;5072035;28;20067;-73
2022/10/05 09:48:39;;;;;;;3.30;1.40;;;;;;;23.19;45.21;101417.19;5101231;28;20027;-73
2022/10/05 09:51:13;;;;;;;5.13;1.50;;;;;;;23.32;44.60;101412.03;5074685;28;20544;-74
2022/10/05 09:53:57;;;;;;;5.00;2.08;;;;;;;23.72;43.53;101419.63;5084267;28;20081;-74
2022/10/05 09:56:25;;;;;;;2.88;2.05;;;;;;;22.64;47.03;101420.03;5089303;28;20032;-74
2022/10/05 09:59:18;;;;;;;6.13;1.65;;;;;;;22.01;47.46;101424.06;5086975;28;20665;-74
2022/10/05 10:02:03;;;;;;;;;;;;;;;23.31;45.28;101417.44;5089557;28;20036;-75
2022/10/05 10:04:47;;;;;;;3.67;2.00;;;;;;;24.54;42.65;101422.97;5089232;28;20325;-74
2022/10/05 10:07:22;;;;;;;3.67;1.90;;;;;;;23.76;43.74;101431.00;5088808;28;20067;-73
2022/10/05 10:10:47;;;;;;;5.70;2.10;;;;;;;23.72;44.50;101420.47;5090075;28;20028;-73
2022/10/05 10:13:30;;;;;;;4.43;1.85;;;;;;;23.00;46.36;101408.41;5034576;28;20052;-74
2022/10/05 10:16:10;;;;;;;2.80;1.90;;;;;;;23.33;44.78;101404.91;5033913;28;20043;-73
2022/10/05 10:18:55;;;;;;;5.95;1.92;;;;;;;23.31;45.76;101409.44;5080004;28;20035;-73
2022/10/05 10:21:35;;;;;;;5.10;1.98;;;;;;;23.24;44.93;101408.91;5094214;28;20081;-73
2022/10/05 10:24:47;;;;;;;4.88;1.90;;;;;;;23.89;45.11;101405.34;5099482;27;20028;-73
2022/10/05 10:27:40;;;;;;;7.00;1.80;;;;;;;24.14;44.42;101404.81;5065408;28;20488;-73
2022/10/05 10:30:34;;;;;;;6.93;2.17;;;;;;;22.95;46.93;101407.78;5109524;28;20039;-73
2022/10/05 10:33:55;;;;;;;4.43;1.80;;;;;;;22.60;47.70;101399.84;5070690;28;20047;-73
2022/10/05 10:36:23;;;;;;;2.50;1.75;;;;;;;24.89;42.55;101385.25;5018450;28;20041;-74
2022/10/05 10:38:57;;;;;;;6.03;2.15;;;;;;;24.28;43.98;101400.47;5046611;28;20471;-73
2022/10/05 10:42:23;;;;;;;3.78;2.28;;;;;;;22.78;47.53;101401.56;5068351;28;20039;-74
2022/10/05 10:45:11;;;;;;;8.38;2.38;;;;;;;23.30;46.61;101397.06;5040954;28;20039;-73
2022/10/05 10:48:24;;;;;;;5.80;2.28;;;;;;;23.13;46.92;101390.84;5072995;28;20374;-74
2022/10/05 10:51:08;;;;;;;4.28;2.10;;;;;;;24.14;45.62;101393.25;5036460;28;20064;-74
2022/10/05 10:54:04;;;;;;;4.70;2.85;;;;;;;23.50;46.42;101378.13;5044484;28;20078;-73
2022/10/05 10:56:58;;;;;;;9.07;2.45;;;;;;;24.67;43.25;101383.88;5063543;28;20055;-74
2022/10/05 10:59:49;;;;;;;4.72;2.40;;;;;;;24.36;44.03;101395.53;5105541;27;20550;-73
2022/10/05 11:02:52;;;;;;;5.63;2.30;;;;;;;23.46;46.34;101395.25;5090459;28;20066;-74
2022/10/05 11:05:32;;;;;;;4.60;2.40;;;;;;;24.08;45.19;101394.47;5108132;27;20032;-74
2022/10/05 11:08:11;;;;;;;4.40;2.38;;;;;;;23.45;45.84;101390.91;5109812;28;20027;-73
2022/10/05 11:10:57;;;;;;;7.28;2.90;;;;;;;23.96;44.82;101381.84;5109027;28;20039;-74
2022/10/05 11:14:01;;;;;;;6.20;2.42;;;;;;;22.76;46.96;101392.75;5100846;27;20500;-73
2022/10/05 11:17:04;;;;;;;9.27;4.93;;;;;;;22.40;48.15;101383.09;5095091;28;20110;-73
2022/10/05 11:19:37;;;;;;;4.97;2.47;;;;;;;23.58;46.11;101393.72;5083085;28;20400;-73
2022/10/05 11:22:24;;;;;;;3.40;2.33;;;;;;;23.67;46.19;101395.00;5103946;28;20786;-74
2022/10/05 11:25:09;;;;;;;4.85;2.15;;;;;;;22.83;46.97;101383.53;5109374;28;20575;-74
2022/10/05 11:27:53;;;;;;;15.25;3.83;;;;;;;23.99;44.51;101390.53;5090395;28;20067;-73
2022/10/05 11:30:43;;;;;;;4.28;2.60;;;;;;;22.99;46.45;101380.03;5091435;28;20081;-73
2022/10/05 11:33:52;;;;;;;3.63;2.50;;;;;;;24.62;43.86;101371.75;5089593;28;20034;-73
2022/10/05 11:36:39;;;;;;;4.68;2.65;;;;;;;23.26;46.67;101374.16;5035180;28;20132;-73
2022/10/05 11:39:07;;;;;;;5.60;2.80;;;;;;;22.76;46.99;101379.44;5095863;28;20395;-73
2022/10/05 11:42:03;;;;;;;6.20;2.45;;;;;;;24.44;44.61;101377.25;5094120;28;20111;-73
2022/10/05 11:44:44;;;;;;;8.35;2.42;;;;;;;24.67;43.85;101364.31;5088901;28;20396;-73
2022/10/05 11:47:31;;;;;;;2.35;2.00;;;;;;;24.26;44.24;101375.66;5090500;28;20031;-73
2022/10/05 11:50:34;;;;;;;5.80;2.45;;;;;;;23.67;45.35;101357.66;5072680;28;20056;-73
2022/10/05 11:53:13;;;;;;;3.00;2.67;;;;;;;24.68;43.78;101360.69;5094101;28;20024;-74
2022/10/05 11:55:56;;;;;;;4.20;2.30;;;;;;;23.67;45.09;101357.66;5091620;28;20024;-73
2022/10/05 11:58:33;;;;;;;6.38;2.58;;;;;;;22.99;47.52;101350.72;5071601;28;20027;-73
2022/10/05 12:01:16;;;;;;;5.88;2.47;;;;;;;23.60;45.58;101351.78;5089226;28;20451;-73
2022/10/05 12:04:44;;;;;;;3.90;2.38;;;;;;;24.20;44.62;101340.34;5089190;28;20036;-72
2022/10/05 12:07:24;;;;;;;4.55;2.90;;;;;;;23.74;46.09;101348.38;5034275;28;20021;-72
2022/10/05 12:10:13;;;;;;;4.20;2.70;;;;;;;23.74;45.88;101351.03;5040194;28;20026;-72
2022/10/05 12:12:50;;;;;;;6.97;2.70;;;;;;;24.07;44.67;101354.50;5073104;28;20106;-72
2022/10/05 12:15:27;;;;;;;3.45;2.25;;;;;;;23.87;45.36;101349.34;5095756;28;20016;-73
2022/10/05 12:18:07;;;;;;;5.95;2.97;;;;;;;25.02;43.07;101347.91;5092030;28;20047;-73
2022/10/05 12:20:37;;;;;;;5.22;3.20;;;;;;;24.23;43.66;101347.31;5092243;27;20178;-73
2022/10/05 12:23:28;;;;;;;5.93;2.55;;;;;;;23.75;46.12;101358.06;5093495;28;20048;-74
2022/10/05 12:26:10;;;;;;;6.05;2.53;;;;;;;23.14;47.53;101346.38;5079787;28;20024;-72
2022/10/05 12:28:48;;;;;;;5.68;2.75;;;;;;;23.43;46.26;101339.44;5095468;28;20027;-73
2022/10/05 12:31:35;;;;;;;4.43;2.92;;;;;;;23.54;45.66;101337.00;5097639;28;20463;-72
2022/10/05 12:34:11;;;;;;;6.28;2.55;;;;;;;24.88;43.42;101322.03;5092188;28;20031;-73
2022/10/05 12:36:41;;;;;;;6.72;2.83;;;;;;;24.43;44.45;101324.75;5090077;28;20036;-72
2022/10/05 12:39:29;;;;;;;7.88;2.90;;;;;;;24.78;43.76;101319.06;5093175;28;20368;-73
2022/10/05 12:42:06;;;;;;;4.70;2.67;;;;;;;23.60;45.42;101330.44;5093792;28;20067;-73
2022/10/05 12:44:58;;;;;;;4.70;2.50;;;;;;;24.17;44.91;101331.69;5089017;28;20118;-72